createdAt,value
2023-08-05T00:07:10.352Z,3.20
2023-08-05T00:17:13.413Z,3.70
2023-08-05T00:27:16.406Z,3.70
2023-08-05T00:37:20.285Z,3.30
2023-08-05T00:47:25.600Z,3.50
2023-08-05T00:57:29.093Z,3.60
2023-08-05T01:07:33.575Z,3.90
2023-08-05T01:17:36.529Z,3.50
2023-08-05T01:27:42.323Z,3.30
2023-08-05T01:37:45.226Z,3.60
2023-08-05T01:47:48.250Z,3.90
2023-08-05T01:57:51.563Z,3.90
2023-08-05T02:07:54.660Z,3.80
2023-08-05T02:17:57.630Z,3.90
2023-08-05T02:28:00.900Z,3.90
2023-08-05T02:38:03.904Z,3.60
2023-08-05T02:48:07.167Z,3.70
2023-08-05T02:58:10.922Z,3.60
2023-08-05T03:08:13.846Z,3.70
2023-08-05T03:18:16.985Z,3.80
2023-08-05T03:28:21.609Z,3.70
2023-08-05T03:38:27.044Z,3.90
2023-08-05T03:48:32.183Z,4.20
2023-08-05T03:58:35.398Z,4.50
2023-08-05T04:08:39.626Z,4.60
2023-08-05T04:18:48.910Z,4.10
2023-08-05T04:28:52.034Z,4.40
2023-08-05T04:38:55.030Z,5.60
2023-08-05T04:48:58.021Z,7.40
2023-08-05T04:59:01.010Z,5.30
2023-08-05T05:09:04.203Z,5.60
2023-08-05T05:19:07.246Z,5.50
2023-08-05T05:29:10.228Z,5.00
2023-08-05T05:39:13.241Z,5.60
2023-08-05T05:49:16.388Z,4.40
2023-08-05T05:59:19.440Z,4.60
2023-08-05T06:09:22.508Z,3.80
2023-08-05T06:19:25.784Z,3.90
2023-08-05T06:29:29.031Z,3.80
2023-08-05T06:39:33.695Z,3.70
2023-08-05T06:49:36.822Z,4.20
2023-08-05T06:59:39.807Z,4.00
2023-08-05T07:09:44.198Z,4.00
2023-08-05T07:19:47.431Z,4.30
2023-08-05T07:29:50.544Z,3.80
2023-08-05T07:39:53.828Z,4.30
2023-08-05T07:49:56.770Z,5.00
2023-08-05T07:59:59.966Z,5.60
2023-08-05T08:10:03.076Z,5.80
2023-08-05T08:20:07.705Z,5.90
2023-08-05T08:30:12.048Z,5.60
2023-08-05T08:40:15.121Z,7.20
2023-08-05T08:50:19.570Z,6.70
2023-08-05T09:00:22.986Z,6.60
2023-08-05T09:10:26.409Z,6.60
2023-08-05T09:20:32.720Z,6.90
2023-08-05T09:30:36.089Z,7.50
2023-08-05T09:40:42.529Z,5.70
2023-08-05T09:50:46.092Z,6.40
2023-08-05T10:00:51.028Z,6.80
2023-08-05T10:10:56.172Z,6.60
2023-08-05T10:21:06.779Z,6.50
2023-08-05T10:31:31.862Z,7.10
2023-08-05T10:41:38.245Z,7.20
2023-08-05T10:51:41.966Z,8.30
2023-08-05T11:01:57.161Z,7.50
2023-08-05T11:12:01.087Z,8.10
2023-08-05T11:22:05.087Z,8.10
2023-08-05T11:32:08.558Z,8.80
2023-08-05T11:42:11.610Z,8.90
2023-08-05T11:52:14.844Z,10.80
2023-08-05T12:02:19.207Z,11.80
2023-08-05T12:12:22.413Z,11.70
2023-08-05T12:22:25.448Z,12.50
2023-08-05T12:32:28.429Z,14.20
2023-08-05T12:42:31.740Z,16.20
2023-08-05T12:52:34.872Z,16.90
2023-08-05T13:02:37.941Z,17.40
2023-08-05T13:12:40.997Z,17.40
2023-08-05T13:22:44.987Z,24.60
2023-08-05T13:32:48.014Z,18.70
2023-08-05T13:42:51.080Z,15.70
2023-08-05T13:52:54.052Z,14.40
2023-08-05T14:02:57.097Z,15.00
2023-08-05T14:13:00.135Z,14.40
2023-08-05T14:23:03.316Z,10.20
2023-08-05T14:33:06.518Z,10.20
2023-08-05T14:43:09.555Z,9.80
2023-08-05T14:53:12.567Z,11.00
2023-08-05T15:03:15.827Z,11.30
2023-08-05T15:13:18.923Z,11.30
2023-08-05T15:23:30.461Z,10.80
2023-08-05T15:33:34.286Z,10.50
2023-08-05T15:43:37.465Z,10.70
2023-08-05T15:53:40.576Z,19.20
2023-08-05T16:03:43.581Z,11.90
2023-08-05T16:13:47.880Z,10.00
2023-08-05T16:23:53.946Z,21.90
2023-08-05T16:33:56.924Z,6.80
2023-08-05T16:44:03.336Z,5.40
2023-08-05T16:54:06.408Z,6.60
2023-08-05T17:04:10.384Z,6.20
2023-08-05T17:14:13.379Z,5.10
2023-08-05T17:24:16.350Z,5.40
2023-08-05T17:34:19.297Z,6.10
2023-08-05T17:44:22.389Z,5.70
2023-08-05T17:54:27.937Z,5.90
2023-08-05T18:04:31.184Z,6.40
2023-08-05T18:14:34.302Z,6.00
2023-08-05T18:24:37.471Z,6.60
2023-08-05T18:34:40.482Z,24.50
2023-08-05T18:44:44.037Z,18.00
2023-08-05T18:54:47.751Z,11.30
2023-08-05T19:04:51.300Z,7.00
2023-08-05T19:14:54.578Z,8.30
2023-08-05T19:24:57.634Z,7.70
2023-08-05T19:35:02.114Z,13.70
2023-08-05T19:45:06.795Z,14.20
2023-08-05T19:55:11.076Z,18.70
2023-08-05T20:05:14.206Z,13.30
2023-08-05T20:15:17.358Z,16.40
2023-08-05T20:25:20.712Z,11.60
2023-08-05T20:35:23.819Z,15.80
2023-08-05T20:45:26.791Z,19.80
2023-08-05T20:55:31.129Z,19.90
2023-08-05T21:05:34.097Z,9.00
2023-08-05T21:15:42.278Z,8.90
2023-08-05T21:25:45.303Z,9.00
2023-08-05T21:35:49.710Z,11.10
2023-08-05T21:45:54.437Z,18.00
2023-08-05T21:56:00.229Z,12.50
2023-08-05T22:06:07.480Z,16.20
2023-08-05T22:16:10.917Z,15.00
2023-08-05T22:26:13.930Z,10.50
2023-08-05T22:36:18.793Z,9.50
2023-08-05T22:46:22.125Z,9.20
2023-08-05T22:56:25.768Z,9.40
2023-08-05T23:06:28.708Z,8.80
2023-08-05T23:16:31.874Z,8.40
2023-08-05T23:26:34.848Z,8.10
2023-08-05T23:36:37.794Z,6.80
2023-08-05T23:46:40.855Z,6.30
2023-08-05T23:56:43.914Z,5.90
